createdAt,value
2022-10-29T00:02:56.139Z,25.53
2022-10-29T00:06:15.590Z,25.48
2022-10-29T00:12:49.004Z,25.43
2022-10-29T00:16:05.104Z,25.65
2022-10-29T00:19:21.276Z,24.58
2022-10-29T00:22:37.406Z,24.43
2022-10-29T00:25:53.615Z,25.25
2022-10-29T00:29:09.695Z,24.15
2022-10-29T00:32:25.893Z,24.40
2022-10-29T00:35:41.976Z,24.68
2022-10-29T00:38:59.214Z,24.58
2022-10-29T00:42:21.764Z,23.83
2022-10-29T00:45:37.917Z,23.48
2022-10-29T00:48:58.571Z,24.73
2022-10-29T00:52:16.242Z,25.23
2022-10-29T00:55:36.080Z,24.30
2022-10-29T00:58:53.256Z,23.93
2022-10-29T01:02:09.639Z,24.88
2022-10-29T01:05:29.595Z,25.68
2022-10-29T01:08:45.812Z,25.50
2022-10-29T01:12:12.009Z,24.48
2022-10-29T01:15:35.021Z,24.45
2022-10-29T01:18:55.865Z,23.40
2022-10-29T01:22:15.642Z,22.38
2022-10-29T01:26:08.492Z,22.18
2022-10-29T01:29:37.468Z,21.93
2022-10-29T01:33:11.028Z,23.60
2022-10-29T01:36:34.132Z,22.13
2022-10-29T01:39:56.554Z,23.30
2022-10-29T01:46:39.630Z,23.93
2022-10-29T01:49:59.778Z,25.03
2022-10-29T01:53:17.311Z,23.33
2022-10-29T01:56:34.189Z,24.13
2022-10-29T01:59:56.054Z,22.80
2022-10-29T02:03:24.813Z,22.73
2022-10-29T02:06:48.843Z,22.33
2022-10-29T02:10:11.709Z,21.43
2022-10-29T02:13:33.168Z,21.40
2022-10-29T02:16:50.174Z,22.23
2022-10-29T02:20:08.387Z,21.38
2022-10-29T02:23:29.822Z,22.23
2022-10-29T02:26:45.983Z,22.15
2022-10-29T02:30:02.322Z,21.70
2022-10-29T02:33:18.376Z,19.15
2022-10-29T02:36:34.523Z,21.55
2022-10-29T02:39:50.516Z,20.52
2022-10-29T02:43:06.473Z,20.98
2022-10-29T02:46:26.803Z,19.95
2022-10-29T02:49:42.802Z,20.73
2022-10-29T02:52:59.066Z,20.30
2022-10-29T02:56:16.579Z,20.35
2022-10-29T02:59:32.636Z,19.95
2022-10-29T03:02:49.023Z,20.23
2022-10-29T03:06:05.596Z,19.58
2022-10-29T03:09:21.666Z,19.20
2022-10-29T03:12:38.115Z,19.25
2022-10-29T03:15:54.805Z,19.48
2022-10-29T03:19:11.733Z,19.95
2022-10-29T03:22:27.678Z,19.90
2022-10-29T03:25:43.773Z,19.48
2022-10-29T03:29:02.901Z,19.35
2022-10-29T03:32:19.049Z,19.65
2022-10-29T03:35:36.582Z,19.93
2022-10-29T03:38:52.656Z,19.45
2022-10-29T03:42:09.132Z,19.43
2022-10-29T03:45:25.820Z,19.10
2022-10-29T03:48:42.214Z,19.33
2022-10-29T03:51:58.569Z,17.60
2022-10-29T03:55:16.505Z,18.13
2022-10-29T03:58:33.418Z,17.75
2022-10-29T04:01:49.467Z,18.65
2022-10-29T04:05:05.823Z,17.48
2022-10-29T04:08:21.810Z,18.53
2022-10-29T04:11:38.968Z,18.45
2022-10-29T04:14:55.008Z,18.33
2022-10-29T04:18:11.793Z,18.13
2022-10-29T04:23:25.355Z,18.05
2022-10-29T04:27:07.767Z,18.45
2022-10-29T04:31:24.407Z,16.80
2022-10-29T04:34:40.395Z,16.20
2022-10-29T04:38:00.476Z,17.03
2022-10-29T04:41:16.561Z,15.75
2022-10-29T04:44:32.607Z,16.48
2022-10-29T04:47:48.600Z,16.73
2022-10-29T04:51:04.963Z,17.50
2022-10-29T04:54:21.319Z,16.18
2022-10-29T04:57:39.010Z,17.40
2022-10-29T05:00:56.442Z,16.73
2022-10-29T05:04:12.654Z,16.30
2022-10-29T05:07:28.731Z,16.53
2022-10-29T05:10:47.004Z,17.60
2022-10-29T05:14:03.243Z,18.38
2022-10-29T05:17:19.324Z,17.23
2022-10-29T05:20:36.504Z,17.23
2022-10-29T05:23:52.464Z,16.68
2022-10-29T05:27:08.531Z,16.28
2022-10-29T05:30:24.705Z,16.30
2022-10-29T05:33:40.845Z,17.18
2022-10-29T05:36:56.973Z,18.08
2022-10-29T05:40:24.463Z,18.15
2022-10-29T05:43:40.512Z,18.18
2022-10-29T05:47:01.689Z,18.65
2022-10-29T05:50:26.276Z,17.50
2022-10-29T05:53:42.575Z,16.75
2022-10-29T05:56:58.824Z,17.10
2022-10-29T06:00:18.403Z,16.90
2022-10-29T06:03:34.499Z,16.98
2022-10-29T06:06:50.633Z,15.65
2022-10-29T06:10:09.565Z,15.68
2022-10-29T06:13:27.265Z,14.03
2022-10-29T06:16:43.262Z,15.18
2022-10-29T06:19:59.557Z,15.25
2022-10-29T06:23:18.688Z,14.70
2022-10-29T06:26:47.019Z,14.88
2022-10-29T06:30:03.124Z,15.30
2022-10-29T06:33:19.482Z,14.38
2022-10-29T06:36:35.505Z,14.70
2022-10-29T06:39:51.666Z,13.95
2022-10-29T06:43:12.792Z,14.80
2022-10-29T06:46:29.074Z,13.83
2022-10-29T06:49:45.122Z,12.98
2022-10-29T06:53:10.654Z,13.80
2022-10-29T06:56:26.787Z,12.83
2022-10-29T06:59:48.570Z,12.50
2022-10-29T07:03:07.711Z,12.65
2022-10-29T07:27:00.116Z,12.05
2022-10-29T08:18:34.475Z,10.83
2022-10-29T08:57:27.101Z,7.68
2022-10-29T09:00:47.289Z,8.00
2022-10-29T09:04:06.520Z,8.10
2022-10-29T09:07:37.093Z,7.90
2022-10-29T09:10:58.544Z,7.68
2022-10-29T09:14:29.906Z,8.18
2022-10-29T09:21:15.279Z,27.80
2022-10-29T09:24:38.506Z,10.63
2022-10-29T09:28:06.109Z,7.95
2022-10-29T09:31:38.448Z,6.65
2022-10-29T09:34:58.592Z,7.03
2022-10-29T09:38:34.526Z,6.98
2022-10-29T09:42:01.097Z,6.88
2022-10-29T09:45:24.720Z,6.28
2022-10-29T09:48:49.584Z,6.38
2022-10-29T09:52:10.954Z,5.90
2022-10-29T09:55:33.222Z,5.63
2022-10-29T09:58:56.276Z,5.33
2022-10-29T10:02:44.095Z,5.13
2022-10-29T10:06:15.964Z,5.48
2022-10-29T10:09:32.334Z,5.10
2022-10-29T10:12:59.048Z,5.60
2022-10-29T10:16:20.809Z,5.00
2022-10-29T10:19:39.019Z,4.28
2022-10-29T10:23:00.559Z,4.60
2022-10-29T10:26:40.285Z,4.80
2022-10-29T10:30:54.100Z,4.13
2022-10-29T10:34:23.196Z,4.00
2022-10-29T10:37:42.853Z,4.20
2022-10-29T10:41:11.731Z,3.88
2022-10-29T10:44:30.228Z,4.18
2022-10-29T10:47:49.351Z,4.80
2022-10-29T10:51:26.206Z,4.13
2022-10-29T10:54:51.140Z,3.78
2022-10-29T10:58:14.889Z,4.20
2022-10-29T11:01:37.704Z,3.88
2022-10-29T11:05:00.844Z,4.08
2022-10-29T11:08:26.365Z,3.60
2022-10-29T11:11:48.454Z,4.38
2022-10-29T11:15:14.604Z,4.20
2022-10-29T11:27:23.464Z,4.18
2022-10-29T11:31:13.591Z,3.50
2022-10-29T11:35:19.608Z,4.15
2022-10-29T11:42:30.040Z,4.30
2022-10-29T11:46:03.672Z,3.93
2022-10-29T11:52:48.862Z,3.88
2022-10-29T11:56:13.523Z,3.53
2022-10-29T11:59:41.007Z,3.75
2022-10-29T12:03:31.041Z,4.03
2022-10-29T12:06:55.264Z,4.63
2022-10-29T12:10:36.584Z,3.43
2022-10-29T12:14:02.293Z,4.40
2022-10-29T12:17:35.545Z,4.10
2022-10-29T12:20:59.564Z,4.43
2022-10-29T12:24:47.642Z,4.23
2022-10-29T12:28:17.655Z,3.98
2022-10-29T12:31:42.947Z,4.65
2022-10-29T12:35:06.228Z,4.35
2022-10-29T12:38:43.225Z,4.10
2022-10-29T12:42:05.386Z,4.88
2022-10-29T12:45:39.964Z,5.18
2022-10-29T12:49:03.929Z,5.35
2022-10-29T12:52:25.592Z,4.30
2022-10-29T12:55:45.150Z,5.20
2022-10-29T12:59:04.052Z,4.40
2022-10-29T13:02:36.155Z,4.05
2022-10-29T13:06:00.112Z,4.53
2022-10-29T13:09:27.419Z,4.68
2022-10-29T13:13:18.954Z,4.28
2022-10-29T13:16:40.538Z,5.00
2022-10-29T13:20:04.253Z,4.80
2022-10-29T13:23:41.107Z,4.70
2022-10-29T13:27:40.885Z,4.70
2022-10-29T13:31:00.033Z,4.90
2022-10-29T13:34:16.624Z,4.70
2022-10-29T13:37:57.703Z,4.93
2022-10-29T13:41:24.256Z,4.20
2022-10-29T13:44:43.324Z,4.00
2022-10-29T13:51:30.853Z,6.25
2022-10-29T13:54:52.775Z,5.35
2022-10-29T13:58:19.308Z,5.25
2022-10-29T14:01:39.911Z,4.80
2022-10-29T14:05:00.638Z,5.05
2022-10-29T14:08:23.264Z,4.70
2022-10-29T14:11:44.594Z,6.88
2022-10-29T14:15:08.977Z,6.25
2022-10-29T14:18:33.010Z,4.65
2022-10-29T14:21:52.477Z,4.80
2022-10-29T14:25:25.488Z,7.35
2022-10-29T14:28:42.774Z,6.25
2022-10-29T14:32:16.473Z,5.15
2022-10-29T14:35:33.905Z,4.90
2022-10-29T14:38:55.186Z,4.98
2022-10-29T14:42:15.356Z,4.68
2022-10-29T14:45:35.966Z,5.53
2022-10-29T14:49:04.851Z,4.40
2022-10-29T14:52:34.272Z,4.95
2022-10-29T14:55:56.337Z,5.48
2022-10-29T14:59:28.080Z,6.35
2022-10-29T15:02:47.848Z,5.00
2022-10-29T15:06:25.377Z,5.00
2022-10-29T15:09:48.116Z,6.05
2022-10-29T15:13:04.595Z,5.58
2022-10-29T15:16:27.003Z,5.85
2022-10-29T15:19:51.365Z,5.53
2022-10-29T15:23:09.059Z,6.10
2022-10-29T15:26:28.192Z,11.70
2022-10-29T15:30:06.536Z,7.83
2022-10-29T15:33:28.304Z,7.00
2022-10-29T15:36:59.405Z,6.43
2022-10-29T15:40:44.344Z,6.43
2022-10-29T15:44:37.274Z,7.28
2022-10-29T15:48:00.782Z,7.10
2022-10-29T15:51:20.696Z,7.78
2022-10-29T15:54:38.093Z,7.58
2022-10-29T15:57:59.718Z,8.33
2022-10-29T16:01:24.378Z,7.95
2022-10-29T16:04:43.245Z,8.43
2022-10-29T16:08:03.690Z,7.65
2022-10-29T16:11:24.556Z,8.05
2022-10-29T16:14:42.395Z,9.43
2022-10-29T16:17:59.502Z,8.60
2022-10-29T16:21:21.755Z,8.48
2022-10-29T16:24:40.001Z,8.83
2022-10-29T16:27:59.620Z,16.88
2022-10-29T16:31:26.461Z,10.93
2022-10-29T16:34:42.691Z,10.25
2022-10-29T16:38:01.030Z,9.53
2022-10-29T16:41:21.900Z,11.13
2022-10-29T16:44:43.815Z,11.33
2022-10-29T16:48:00.581Z,11.90
2022-10-29T16:51:17.773Z,11.00
2022-10-29T16:54:36.302Z,12.13
2022-10-29T16:57:53.098Z,12.75
2022-10-29T17:01:17.483Z,12.48
2022-10-29T17:04:48.427Z,12.88
2022-10-29T17:08:05.299Z,13.20
2022-10-29T17:11:24.142Z,12.70
2022-10-29T17:14:44.227Z,12.30
2022-10-29T17:18:05.066Z,12.50
2022-10-29T17:21:21.689Z,13.35
2022-10-29T17:24:49.756Z,12.70
2022-10-29T17:28:11.874Z,12.10
2022-10-29T17:31:35.346Z,11.95
2022-10-29T17:34:57.968Z,13.63
2022-10-29T17:38:15.821Z,42.40
2022-10-29T17:41:32.164Z,21.18
2022-10-29T17:44:48.508Z,15.75
2022-10-29T17:48:07.881Z,15.10
2022-10-29T17:51:24.065Z,15.60
2022-10-29T17:54:40.376Z,15.40
2022-10-29T17:57:57.486Z,16.70
2022-10-29T18:01:16.222Z,15.63
2022-10-29T18:04:36.864Z,17.38
2022-10-29T18:07:53.017Z,16.43
2022-10-29T18:11:21.061Z,16.40
2022-10-29T18:14:37.364Z,16.13
2022-10-29T18:17:56.811Z,16.18
2022-10-29T18:21:16.820Z,17.50
2022-10-29T18:24:56.660Z,16.70
2022-10-29T18:28:16.250Z,17.18
2022-10-29T18:31:38.184Z,18.25
2022-10-29T18:34:56.093Z,19.55
2022-10-29T18:38:12.576Z,18.85
2022-10-29T18:41:29.811Z,18.75
2022-10-29T18:44:46.068Z,19.38
2022-10-29T18:48:02.702Z,19.25
2022-10-29T18:51:21.957Z,18.48
2022-10-29T18:57:57.014Z,18.80
2022-10-29T19:01:20.221Z,18.93
2022-10-29T19:04:36.711Z,18.60
2022-10-29T19:07:52.953Z,19.98
2022-10-29T19:11:12.536Z,20.48
2022-10-29T19:14:28.952Z,20.15
2022-10-29T19:17:45.516Z,21.13
2022-10-29T19:21:01.812Z,21.08
2022-10-29T19:24:24.504Z,20.80
2022-10-29T19:27:41.420Z,19.85
2022-10-29T19:31:10.842Z,20.08
2022-10-29T19:34:32.517Z,21.38
2022-10-29T19:38:23.398Z,20.93
2022-10-29T19:41:33.840Z,21.08
2022-10-29T19:44:55.430Z,20.98
2022-10-29T19:48:13.316Z,21.60
2022-10-29T19:54:48.206Z,21.58
2022-10-29T20:01:22.832Z,21.65
2022-10-29T20:04:41.361Z,21.38
2022-10-29T20:08:03.349Z,22.75
2022-10-29T20:11:22.379Z,20.68
2022-10-29T20:14:39.217Z,22.55
2022-10-29T20:17:58.649Z,22.73
2022-10-29T20:21:17.317Z,23.48
2022-10-29T20:24:33.625Z,21.55
2022-10-29T20:27:50.342Z,22.05
2022-10-29T20:31:40.071Z,22.08
2022-10-29T20:34:52.709Z,21.50
2022-10-29T20:38:08.955Z,22.20
2022-10-29T20:44:40.612Z,21.40
2022-10-29T20:47:57.525Z,21.48
2022-10-29T20:51:15.381Z,22.28
2022-10-29T20:54:31.627Z,22.05
2022-10-29T20:57:47.848Z,20.63
2022-10-29T21:01:11.392Z,21.65
2022-10-29T21:04:27.919Z,22.35
2022-10-29T21:07:45.506Z,21.15
2022-10-29T21:14:17.453Z,19.63
2022-10-29T21:17:34.813Z,20.90
2022-10-29T21:20:50.902Z,21.18
2022-10-29T21:24:08.038Z,22.28
2022-10-29T21:30:39.773Z,21.68
2022-10-29T21:33:58.190Z,20.45
2022-10-29T21:37:15.857Z,20.52
2022-10-29T21:40:32.125Z,21.65
2022-10-29T21:43:48.959Z,20.03
2022-10-29T21:47:05.101Z,20.10
2022-10-29T21:50:21.539Z,21.03
2022-10-29T21:53:38.486Z,20.30
2022-10-29T21:56:54.506Z,19.30
2022-10-29T22:00:14.284Z,19.95
2022-10-29T22:03:30.503Z,20.38
2022-10-29T22:06:46.532Z,20.18
2022-10-29T22:14:53.911Z,20.45
2022-10-29T22:18:10.322Z,20.10
2022-10-29T22:21:29.540Z,19.65
2022-10-29T22:24:45.761Z,19.43
2022-10-29T22:31:18.551Z,20.58
2022-10-29T22:34:35.140Z,19.85
2022-10-29T22:37:51.415Z,20.10
2022-10-29T22:41:13.253Z,19.45
2022-10-29T22:44:29.912Z,20.38
2022-10-29T22:47:47.264Z,20.35
2022-10-29T22:51:11.272Z,20.20
2022-10-29T22:54:28.344Z,19.45
2022-10-29T22:57:44.551Z,20.78
2022-10-29T23:01:10.856Z,19.65
2022-10-29T23:04:27.520Z,19.73
2022-10-29T23:07:43.589Z,19.58
2022-10-29T23:11:00.021Z,20.63
2022-10-29T23:14:16.099Z,20.80
2022-10-29T23:17:32.802Z,21.40
2022-10-29T23:20:49.140Z,22.50
2022-10-29T23:24:06.058Z,22.55
2022-10-29T23:27:22.266Z,22.13
2022-10-29T23:30:38.353Z,21.75
2022-10-29T23:33:56.413Z,21.53
2022-10-29T23:37:12.949Z,20.43
2022-10-29T23:45:42.982Z,20.10
2022-10-29T23:48:59.380Z,20.75
2022-10-29T23:52:15.658Z,20.63
